Time;durP1;ratioP1;P1;durP2;ratioP2;P2;SDS_P1;SDS_P2;PMS_P1;PMS_P2;Temp;Humidity;BMP_temperature;BMP_pressure;BME280_temperature;BME280_humidity;BME280_pressure;Samples;Min_cycle;Max_cycle;Signal;HPM_P1;HPM_P2
2022/05/15 00:01:22;;;;;;;;;;;20.70;99.90;;;;;;4994020;28;19917;-88
2022/05/15 00:03:48;;;;;;;;;;;20.60;99.90;;;;;;4976430;28;19910;-89
2022/05/15 00:06:13;;;;;;;;;;;20.60;99.90;;;;;;4994065;28;19917;-88
2022/05/15 00:08:39;;;;;;;;;;;20.70;99.90;;;;;;4993979;28;19916;-87
2022/05/15 00:11:05;;;;;;;;;;;20.70;99.90;;;;;;4993783;28;19913;-87
2022/05/15 00:13:31;;;;;;;;;;;20.60;99.90;;;;;;4993764;28;20375;-87
2022/05/15 00:15:57;;;;;;;;;;;20.60;99.90;;;;;;4976396;28;19937;-87
2022/05/15 00:18:23;;;;;;;;;;;20.70;99.90;;;;;;4993781;28;19925;-87
2022/05/15 00:20:52;;;;;;;;;;;20.60;99.90;;;;;;4985919;28;20061;-88
2022/05/15 00:23:18;;;;;;;;;;;20.60;99.90;;;;;;4993863;28;19917;-88
2022/05/15 00:25:43;;;;;;;;;;;20.50;99.90;;;;;;4993655;28;19914;-87
2022/05/15 00:28:09;;;;;;;;;;;20.50;99.90;;;;;;4993526;28;19910;-87
2022/05/15 00:30:35;;;;;;;;;;;20.50;99.90;;;;;;4993571;28;19914;-87
2022/05/15 00:33:01;;;;;;;;;;;20.50;99.90;;;;;;4993369;28;19922;-88
2022/05/15 00:35:27;;;;;;;;;;;20.50;99.90;;;;;;4993248;28;19909;-87
2022/05/15 00:37:52;;;;;;;;;;;20.60;99.90;;;;;;4992797;28;19910;-87
2022/05/15 00:40:19;;;;;;;;;;;20.60;99.90;;;;;;4993289;28;19921;-86
2022/05/15 00:42:45;;;;;;;;;;;20.60;99.90;;;;;;4993169;28;20486;-87
2022/05/15 00:45:10;;;;;;;;;;;20.60;99.90;;;;;;4993289;28;19921;-88
2022/05/15 00:47:36;;;;;;;;;;;20.50;99.90;;;;;;4993302;28;19910;-87
2022/05/15 00:50:07;;;;;;;;;;;20.50;99.90;;;;;;4993059;28;19965;-88
2022/05/15 00:52:34;;;;;;;;;;;20.40;99.90;;;;;;4992921;28;19976;-88
2022/05/15 00:55:04;;;;;;;;;;;20.50;99.90;;;;;;4992900;28;19910;-87
2022/05/15 00:57:35;;;;;;;;;;;20.50;99.90;;;;;;4975144;28;20394;-87
2022/05/15 01:00:06;;;;;;;;;;;20.40;99.90;;;;;;4992968;28;20408;-87
2022/05/15 01:02:34;;;;;;;;;;;20.40;99.90;;;;;;4992963;28;19910;-87
2022/05/15 01:05:00;;;;;;;;;;;20.40;99.90;;;;;;4992951;28;19917;-87
2022/05/15 01:07:26;;;;;;;;;;;20.40;99.90;;;;;;4992905;28;19953;-86
2022/05/15 01:09:52;;;;;;;;;;;20.30;99.90;;;;;;4992875;28;20390;-87
2022/05/15 01:12:18;;;;;;;;;;;20.30;99.90;;;;;;4992603;28;19925;-88
2022/05/15 01:14:45;;;;;;;;;;;20.30;99.90;;;;;;4975148;28;19910;-87
2022/05/15 01:17:11;;;;;;;;;;;20.30;99.90;;;;;;4992524;28;19928;-87
2022/05/15 01:19:37;;;;;;;;;;;20.30;99.90;;;;;;4992591;28;19917;-87
2022/05/15 01:22:04;;;;;;;;;;;20.30;99.90;;;;;;4992648;28;20004;-88
2022/05/15 01:24:29;;;;;;;;;;;20.40;99.90;;;;;;4975430;28;19910;-87
2022/05/15 01:26:56;;;;;;;;;;;20.40;99.90;;;;;;4974916;28;19914;-87
2022/05/15 01:29:28;;;;;;;;;;;20.30;99.90;;;;;;4992488;28;20008;-87
2022/05/15 01:31:54;;;;;;;;;;;20.30;99.90;;;;;;4992269;28;19925;-87
2022/05/15 01:34:19;;;;;;;;;;;20.30;99.90;;;;;;4992260;28;19914;-87
2022/05/15 01:36:45;;;;;;;;;;;20.40;99.90;;;;;;4992125;28;19909;-87
2022/05/15 01:39:10;;;;;;;;;;;20.30;99.90;;;;;;4992046;28;19910;-87
2022/05/15 01:41:36;;;;;;;;;;;20.40;99.90;;;;;;4991941;28;20001;-88
2022/05/15 01:44:01;;;;;;;;;;;20.40;99.90;;;;;;4974718;28;20012;-87
2022/05/15 01:46:28;;;;;;;;;;;20.40;99.90;;;;;;4992006;28;19910;-88
2022/05/15 01:48:54;;;;;;;;;;;20.40;99.90;;;;;;4991450;28;19909;-87
2022/05/15 01:51:20;;;;;;;;;;;20.40;99.90;;;;;;4991623;28;20001;-87
2022/05/15 01:53:46;;;;;;;;;;;20.40;99.90;;;;;;4991594;28;19922;-87
2022/05/15 01:56:12;;;;;;;;;;;20.30;99.90;;;;;;4991564;28;19909;-87
2022/05/15 01:58:37;;;;;;;;;;;20.20;99.90;;;;;;4974029;28;19925;-87
2022/05/15 02:01:03;;;;;;;;;;;20.20;99.90;;;;;;4991410;28;19917;-87
2022/05/15 02:03:28;;;;;;;;;;;20.30;99.90;;;;;;4973792;28;19910;-87
2022/05/15 02:05:54;;;;;;;;;;;20.30;99.90;;;;;;4991327;28;20080;-86
2022/05/15 02:08:20;;;;;;;;;;;20.30;99.90;;;;;;4991363;28;19955;-87
2022/05/15 02:10:46;;;;;;;;;;;20.30;99.90;;;;;;4991116;28;20382;-86
2022/05/15 02:13:12;;;;;;;;;;;20.40;99.90;;;;;;4990983;28;20016;-87
2022/05/15 02:15:37;;;;;;;;;;;20.30;99.90;;;;;;4991150;28;19964;-87
2022/05/15 02:18:04;;;;;;;;;;;20.30;99.90;;;;;;4990976;28;20362;-87
2022/05/15 02:20:30;;;;;;;;;;;20.30;99.90;;;;;;4991010;28;19910;-87
2022/05/15 02:22:56;;;;;;;;;;;20.40;99.90;;;;;;4991013;28;20450;-86
2022/05/15 02:25:21;;;;;;;;;;;20.40;99.90;;;;;;4990932;28;20005;-87
2022/05/15 02:27:47;;;;;;;;;;;20.40;99.90;;;;;;4990707;28;19953;-87
2022/05/15 02:30:13;;;;;;;;;;;20.50;99.90;;;;;;4991025;28;20005;-87
2022/05/15 02:32:39;;;;;;;;;;;20.50;99.90;;;;;;4990845;28;19918;-87
2022/05/15 02:35:05;;;;;;;;;;;20.50;99.90;;;;;;4990745;28;19910;-87
2022/05/15 02:37:30;;;;;;;;;;;20.40;99.90;;;;;;4990697;28;19926;-87
2022/05/15 02:39:56;;;;;;;;;;;20.50;99.90;;;;;;4990684;28;19953;-87
2022/05/15 02:42:22;;;;;;;;;;;20.50;99.90;;;;;;4990481;28;19909;-86
2022/05/15 02:44:47;;;;;;;;;;;20.50;99.90;;;;;;4990658;28;20406;-87
2022/05/15 02:47:13;;;;;;;;;;;20.50;99.90;;;;;;4973186;28;19910;-87
2022/05/15 02:52:22;;;;;;;;;;;20.50;99.90;;;;;;4990335;28;19932;-87
2022/05/15 02:54:48;;;;;;;;;;;20.50;99.90;;;;;;4990386;28;19910;-86
2022/05/15 02:57:13;;;;;;;;;;;20.50;99.90;;;;;;4972874;28;20331;-87
2022/05/15 02:59:39;;;;;;;;;;;20.50;99.90;;;;;;4972937;28;19910;-87
2022/05/15 03:02:05;;;;;;;;;;;20.40;99.90;;;;;;4990155;28;19909;-87
2022/05/15 03:04:32;;;;;;;;;;;20.40;99.90;;;;;;4972895;28;19949;-87
2022/05/15 03:06:58;;;;;;;;;;;20.40;99.90;;;;;;4990572;28;19945;-88
2022/05/15 03:09:23;;;;;;;;;;;20.40;99.90;;;;;;4973015;28;20337;-87
2022/05/15 03:11:49;;;;;;;;;;;20.40;99.90;;;;;;4972856;28;19957;-87
2022/05/15 03:14:14;;;;;;;;;;;20.30;99.90;;;;;;4967135;28;20420;-86
2022/05/15 03:16:40;;;;;;;;;;;20.20;99.90;;;;;;4971874;28;19910;-86
2022/05/15 03:19:06;;;;;;;;;;;20.20;99.90;;;;;;4971692;28;19910;-86
2022/05/15 03:21:31;;;;;;;;;;;20.10;99.90;;;;;;4954298;28;19910;-86
2022/05/15 03:23:58;;;;;;;;;;;20.00;99.90;;;;;;4971639;28;20034;-86
2022/05/15 03:26:25;;;;;;;;;;;20.00;99.90;;;;;;4971639;28;19910;-87
2022/05/15 03:28:50;;;;;;;;;;;20.00;99.90;;;;;;4971714;28;19921;-89
2022/05/15 03:31:16;;;;;;;;;;;20.00;99.90;;;;;;4971858;28;19911;-86
2022/05/15 03:33:41;;;;;;;;;;;19.90;99.90;;;;;;4971760;28;20005;-87
2022/05/15 03:36:13;;;;;;;;;;;19.80;99.90;;;;;;4971667;28;20366;-89
2022/05/15 03:38:39;;;;;;;;;;;19.80;99.90;;;;;;4971686;28;19917;-87
2022/05/15 03:41:05;;;;;;;;;;;19.80;99.90;;;;;;4971341;28;19906;-86
2022/05/15 03:43:30;;;;;;;;;;;19.70;99.90;;;;;;4971459;28;19920;-87
2022/05/15 03:45:56;;;;;;;;;;;19.70;99.90;;;;;;4971504;28;19910;-87
2022/05/15 03:48:21;;;;;;;;;;;19.60;99.90;;;;;;4971618;28;19993;-87
2022/05/15 03:50:47;;;;;;;;;;;19.60;99.90;;;;;;4973045;28;19954;-87
2022/05/15 03:53:12;;;;;;;;;;;19.60;99.90;;;;;;4990443;28;20019;-88
2022/05/15 03:55:38;;;;;;;;;;;19.60;99.90;;;;;;4990367;28;20366;-88
2022/05/15 03:58:03;;;;;;;;;;;19.50;99.90;;;;;;4990408;28;20421;-86
2022/05/15 04:00:29;;;;;;;;;;;19.60;99.90;;;;;;4972904;28;19910;-87
2022/05/15 04:02:55;;;;;;;;;;;19.50;99.90;;;;;;4990367;28;19950;-87
2022/05/15 04:05:21;;;;;;;;;;;19.40;99.90;;;;;;4990191;28;20378;-87
2022/05/15 04:07:47;;;;;;;;;;;19.40;99.90;;;;;;4990279;28;19962;-87
2022/05/15 04:10:14;;;;;;;;;;;19.30;99.90;;;;;;4990464;28;19965;-86
2022/05/15 04:12:39;;;;;;;;;;;19.30;99.90;;;;;;4991096;28;19918;-87
2022/05/15 04:15:05;;;;;;;;;;;19.30;99.90;;;;;;4993915;28;19910;-87
2022/05/15 04:17:31;;;;;;;;;;;19.30;99.90;;;;;;4970279;28;19922;-87
2022/05/15 04:20:00;;;;;;;;;;;19.30;99.90;;;;;;4994142;28;19939;-86
2022/05/15 04:22:25;;;;;;;;;;;19.30;99.90;;;;;;4993471;28;19914;-87
2022/05/15 04:24:51;;;;;;;;;;;19.30;99.90;;;;;;4993595;28;19957;-87
2022/05/15 04:27:17;;;;;;;;;;;19.20;99.90;;;;;;4993495;28;19913;-87
2022/05/15 04:29:42;;;;;;;;;;;19.20;99.90;;;;;;4993518;28;19910;-86
2022/05/15 04:32:08;;;;;;;;;;;19.10;99.90;;;;;;4993528;28;19918;-88
2022/05/15 04:34:33;;;;;;;;;;;19.10;99.90;;;;;;4993595;28;19909;-86
2022/05/15 04:36:59;;;;;;;;;;;19.00;99.90;;;;;;4993565;28;19916;-86
2022/05/15 04:39:25;;;;;;;;;;;19.00;99.90;;;;;;4993306;28;20395;-86
2022/05/15 04:41:51;;;;;;;;;;;19.00;99.90;;;;;;4993073;28;19920;-86
2022/05/15 04:44:16;;;;;;;;;;;19.00;99.90;;;;;;4993064;28;19910;-87
2022/05/15 04:46:42;;;;;;;;;;;18.90;99.90;;;;;;4975818;28;19910;-89
2022/05/15 04:49:07;;;;;;;;;;;18.80;99.90;;;;;;4985409;28;20182;-86
2022/05/15 04:51:33;;;;;;;;;;;18.90;99.90;;;;;;5004096;28;20252;-87
2022/05/15 04:53:58;;;;;;;;;;;18.90;99.90;;;;;;4986533;28;19940;-87
2022/05/15 04:56:24;;;;;;;;;;;18.80;99.90;;;;;;5003820;28;19906;-87
2022/05/15 04:58:50;;;;;;;;;;;18.90;99.90;;;;;;5003841;28;20020;-86
2022/05/15 05:01:16;;;;;;;;;;;18.90;99.90;;;;;;5004018;28;19910;-87
2022/05/15 05:03:42;;;;;;;;;;;18.80;99.90;;;;;;4986287;28;19949;-87
2022/05/15 05:06:07;;;;;;;;;;;18.80;99.90;;;;;;5003882;28;20182;-87
2022/05/15 05:08:33;;;;;;;;;;;18.80;99.90;;;;;;5003867;28;19912;-87
2022/05/15 05:10:59;;;;;;;;;;;18.90;99.90;;;;;;4986157;28;19942;-87
2022/05/15 05:13:24;;;;;;;;;;;18.90;99.90;;;;;;5003975;28;19918;-86
2022/05/15 05:15:50;;;;;;;;;;;18.90;99.90;;;;;;4986260;28;19978;-87
2022/05/15 05:18:16;;;;;;;;;;;18.80;99.90;;;;;;4986324;28;19906;-87
2022/05/15 05:20:43;;;;;;;;;;;18.80;99.90;;;;;;5003942;28;20202;-87
2022/05/15 05:23:09;;;;;;;;;;;18.80;99.90;;;;;;5003682;28;20193;-87
2022/05/15 05:25:34;;;;;;;;;;;18.80;99.90;;;;;;5003426;28;20017;-86
2022/05/15 05:28:00;;;;;;;;;;;18.90;99.90;;;;;;5003848;28;20186;-87
2022/05/15 05:30:25;;;;;;;;;;;18.80;99.90;;;;;;5003502;28;19913;-87
2022/05/15 05:32:51;;;;;;;;;;;18.80;99.90;;;;;;5003460;28;20033;-88
2022/05/15 05:35:18;;;;;;;;;;;18.90;99.90;;;;;;5003267;28;19913;-85
2022/05/15 05:37:43;;;;;;;;;;;19.00;99.90;;;;;;5002798;28;19912;-85
2022/05/15 05:40:09;;;;;;;;;;;19.00;99.90;;;;;;5002599;28;20179;-85
2022/05/15 05:42:35;;;;;;;;;;;19.10;99.90;;;;;;4985501;28;19981;-85
2022/05/15 05:45:04;;;;;;;;;;;19.20;99.90;;;;;;5002652;28;19909;-85
2022/05/15 05:47:30;;;;;;;;;;;19.20;99.90;;;;;;4985531;28;20097;-85
2022/05/15 05:49:55;;;;;;;;;;;19.30;99.90;;;;;;5001557;28;20288;-84
2022/05/15 05:52:22;;;;;;;;;;;19.30;99.90;;;;;;5003287;28;19925;-85
2022/05/15 05:54:47;;;;;;;;;;;19.30;99.90;;;;;;5002602;28;20126;-88
2022/05/15 05:57:13;;;;;;;;;;;19.30;99.90;;;;;;5002584;28;19953;-85
2022/05/15 05:59:39;;;;;;;;;;;19.40;99.90;;;;;;5001893;28;19969;-86
2022/05/15 06:02:06;;;;;;;;;;;19.40;99.90;;;;;;5002624;28;19906;-85
2022/05/15 06:04:44;;;;;;;;;;;19.50;99.90;;;;;;5002795;28;19915;-79
2022/05/15 06:07:11;;;;;;;;;;;19.50;99.90;;;;;;5002957;28;19940;-79
2022/05/15 06:09:38;;;;;;;;;;;19.60;99.90;;;;;;5003049;28;19932;-79
2022/05/15 06:12:04;;;;;;;;;;;19.70;99.90;;;;;;5002622;28;19917;-79
2022/05/15 06:14:30;;;;;;;;;;;19.70;99.90;;;;;;5000770;28;20390;-79
2022/05/15 06:16:56;;;;;;;;;;;19.80;99.90;;;;;;5000743;28;19960;-79
2022/05/15 06:19:22;;;;;;;;;;;19.80;99.90;;;;;;4995781;28;19909;-79
2022/05/15 06:21:47;;;;;;;;;;;19.90;99.90;;;;;;4991211;28;20058;-79
2022/05/15 06:24:13;;;;;;;;;;;20.00;99.90;;;;;;4991163;28;20069;-82
2022/05/15 06:26:38;;;;;;;;;;;20.00;99.90;;;;;;4990903;28;20208;-79
2022/05/15 06:29:04;;;;;;;;;;;20.10;99.90;;;;;;4992276;28;20417;-83
2022/05/15 06:31:29;;;;;;;;;;;20.20;99.90;;;;;;4983706;28;19973;-83
2022/05/15 06:33:55;;;;;;;;;;;20.20;99.90;;;;;;4944589;29;19964;-85
2022/05/15 06:36:20;;;;;;;;;;;20.20;99.90;;;;;;4973197;28;19921;-86
2022/05/15 06:38:46;;;;;;;;;;;20.20;99.90;;;;;;4973281;28;19914;-86
2022/05/15 06:41:11;;;;;;;;;;;20.20;99.90;;;;;;4990380;28;19910;-86
2022/05/15 06:43:37;;;;;;;;;;;20.30;99.90;;;;;;4973177;28;19913;-86
2022/05/15 06:46:03;;;;;;;;;;;20.40;99.90;;;;;;4990724;28;19910;-87
2022/05/15 06:48:28;;;;;;;;;;;20.50;99.90;;;;;;4990511;28;19968;-87
2022/05/15 06:50:54;;;;;;;;;;;20.50;99.90;;;;;;4989464;28;20001;-86
2022/05/15 06:53:20;;;;;;;;;;;20.60;99.90;;;;;;4989899;28;19965;-87
2022/05/15 06:58:32;;;;;;;;;;;20.70;99.90;;;;;;4990233;28;19957;-87
2022/05/15 07:00:58;;;;;;;;;;;20.80;99.90;;;;;;4990044;28;19910;-86
2022/05/15 07:03:23;;;;;;;;;;;20.90;99.90;;;;;;4990175;28;19957;-87
2022/05/15 07:05:50;;;;;;;;;;;21.00;99.90;;;;;;4990485;28;19909;-87
2022/05/15 07:08:16;;;;;;;;;;;21.20;99.90;;;;;;4972908;28;20005;-86
2022/05/15 07:10:42;;;;;;;;;;;21.40;99.90;;;;;;4990775;28;20012;-86
2022/05/15 07:15:43;;;;;;;;;;;21.60;99.90;;;;;;5383052;23;19926;-85
2022/05/15 07:18:09;;;;;;;;;;;21.80;99.90;;;;;;4977364;28;19910;-86
2022/05/15 07:20:35;;;;;;;;;;;22.10;99.90;;;;;;4975072;28;19910;-85
2022/05/15 07:23:01;;;;;;;;;;;22.30;99.90;;;;;;4974904;28;19917;-86
2022/05/15 07:25:27;;;;;;;;;;;22.50;99.90;;;;;;4974891;28;20305;-85
2022/05/15 07:27:53;;;;;;;;;;;22.70;99.90;;;;;;4974693;28;19933;-85
2022/05/15 07:30:19;;;;;;;;;;;22.90;99.90;;;;;;4957257;28;19958;-86
2022/05/15 07:32:44;;;;;;;;;;;23.00;99.90;;;;;;4974633;28;19921;-86
2022/05/15 07:35:10;;;;;;;;;;;23.20;99.90;;;;;;4974636;28;19996;-85
2022/05/15 07:37:35;;;;;;;;;;;23.20;99.90;;;;;;4974861;28;19911;-86
2022/05/15 07:40:01;;;;;;;;;;;23.20;99.90;;;;;;4973365;28;19910;-85
2022/05/15 07:42:26;;;;;;;;;;;23.30;99.90;;;;;;4974618;28;20267;-86
2022/05/15 07:44:57;;;;;;;;;;;23.30;99.90;;;;;;4974990;28;19914;-85
2022/05/15 07:47:23;;;;;;;;;;;23.60;99.90;;;;;;4975220;28;19914;-84
2022/05/15 07:49:49;;;;;;;;;;;23.80;99.90;;;;;;4978137;28;19910;-85
2022/05/15 07:52:15;;;;;;;;;;;23.80;99.90;;;;;;4978091;28;20285;-85
2022/05/15 07:54:40;;;;;;;;;;;23.80;99.90;;;;;;4978227;28;19961;-86
2022/05/15 07:57:06;;;;;;;;;;;23.80;99.90;;;;;;4978405;28;19910;-85
2022/05/15 07:59:32;;;;;;;;;;;24.00;99.90;;;;;;4978010;28;19910;-87
2022/05/15 08:01:59;;;;;;;;;;;24.00;99.90;;;;;;4982787;28;19906;-89
2022/05/15 08:04:25;;;;;;;;;;;24.20;99.90;;;;;;4987731;28;19911;-88
2022/05/15 08:09:35;;;;;;;;;;;24.40;99.90;;;;;;4988524;28;20273;-85
2022/05/15 08:12:01;;;;;;;;;;;24.50;99.90;;;;;;4988394;28;19906;-85
2022/05/15 08:14:28;;;;;;;;;;;24.50;99.90;;;;;;4981221;28;19914;-85
2022/05/15 08:16:53;;;;;;;;;;;24.30;99.90;;;;;;4978094;28;20377;-85
2022/05/15 08:24:48;;;;;;;;;;;24.30;99.90;;;;;;4977583;28;19998;-85
2022/05/15 08:27:14;;;;;;;;;;;24.30;99.90;;;;;;4977582;28;20266;-85
2022/05/15 08:29:40;;;;;;;;;;;24.50;99.90;;;;;;4977494;28;19917;-84
2022/05/15 08:32:06;;;;;;;;;;;24.50;99.90;;;;;;4978400;28;19914;-85
2022/05/15 08:34:32;;;;;;;;;;;24.60;99.90;;;;;;4977612;28;20332;-84
2022/05/15 08:37:00;;;;;;;;;;;24.60;99.90;;;;;;4978059;28;19916;-85
2022/05/15 08:39:26;;;;;;;;;;;24.70;99.90;;;;;;4979246;28;19917;-85
2022/05/15 08:42:16;;;;;;;;;;;24.60;99.90;;;;;;4977217;28;19911;-85
2022/05/15 08:44:46;;;;;;;;;;;24.80;99.90;;;;;;4979053;28;19910;-85
2022/05/15 08:47:17;;;;;;;;;;;24.80;99.90;;;;;;4977710;28;19910;-86
2022/05/15 08:49:43;;;;;;;;;;;24.80;99.90;;;;;;4977409;28;20349;-85
2022/05/15 08:52:24;;;;;;;;;;;24.80;99.90;;;;;;4977430;28;19914;-85
2022/05/15 08:54:49;;;;;;;;;;;24.70;99.90;;;;;;4977632;28;19911;-83
2022/05/15 08:57:33;;;;;;;;;;;24.80;99.90;;;;;;4977054;28;19910;-83
2022/05/15 09:00:00;;;;;;;;;;;24.80;99.90;;;;;;4976810;28;19910;-83
2022/05/15 09:02:25;;;;;;;;;;;24.90;99.90;;;;;;4977644;28;19910;-84
2022/05/15 09:04:51;;;;;;;;;;;24.90;99.90;;;;;;4976921;28;19910;-83
2022/05/15 09:07:25;;;;;;;;;;;25.00;99.90;;;;;;4977607;28;19914;-83
2022/05/15 09:10:03;;;;;;;;;;;25.00;99.90;;;;;;4977660;28;19910;-83
2022/05/15 09:12:30;;;;;;;;;;;25.10;99.90;;;;;;4976950;28;20401;-83
2022/05/15 09:15:01;;;;;;;;;;;25.10;99.90;;;;;;4977373;28;20356;-83
2022/05/15 09:17:28;;;;;;;;;;;25.10;99.90;;;;;;4976615;28;19957;-84
2022/05/15 09:20:17;;;;;;;;;;;25.10;99.90;;;;;;4977066;28;19917;-83
2022/05/15 09:22:45;;;;;;;;;;;25.00;99.90;;;;;;4958882;28;19906;-83
2022/05/15 09:25:22;;;;;;;;;;;24.80;99.90;;;;;;4964945;28;19910;-84
2022/05/15 09:28:02;;;;;;;;;;;24.80;99.90;;;;;;4975534;28;19950;-85
2022/05/15 09:30:32;;;;;;;;;;;24.90;99.90;;;;;;4976446;28;20412;-85
2022/05/15 09:32:57;;;;;;;;;;;24.90;99.90;;;;;;4959378;28;19985;-84
2022/05/15 09:35:35;;;;;;;;;;;24.90;99.90;;;;;;4976588;28;19967;-85
2022/05/15 09:43:31;;;;;;;;;;;24.80;99.90;;;;;;4976747;28;19916;-85
2022/05/15 09:45:57;;;;;;;;;;;24.90;99.90;;;;;;4977542;28;19965;-80
2022/05/15 09:48:29;;;;;;;;;;;25.00;99.90;;;;;;4980397;28;19906;-90
2022/05/15 09:50:57;;;;;;;;;;;25.20;99.90;;;;;;4979725;28;20193;-88
2022/05/15 09:53:32;;;;;;;;;;;25.30;99.90;;;;;;4979333;28;19918;-87
2022/05/15 09:56:02;;;;;;;;;;;25.40;99.90;;;;;;4976130;28;19911;-86
2022/05/15 09:58:36;;;;;;;;;;;25.60;99.90;;;;;;4979729;28;19910;-87
2022/05/15 10:01:31;;;;;;;;;;;25.70;99.90;;;;;;4984746;28;19980;-88
2022/05/15 10:03:57;;;;;;;;;;;25.90;99.90;;;;;;4966141;28;19910;-87
2022/05/15 10:06:28;;;;;;;;;;;26.00;99.90;;;;;;4981215;28;19914;-88
2022/05/15 10:09:05;;;;;;;;;;;26.20;99.90;;;;;;4976638;28;19910;-85
2022/05/15 10:11:33;;;;;;;;;;;26.30;99.90;;;;;;4980189;28;19907;-87
2022/05/15 10:13:59;;;;;;;;;;;26.40;99.90;;;;;;4980305;28;20337;-85
2022/05/15 10:16:30;;;;;;;;;;;26.50;99.90;;;;;;4976896;28;19922;-89
2022/05/15 10:19:02;;;;;;;;;;;26.70;99.90;;;;;;4978915;28;19917;-86
2022/05/15 10:21:32;;;;;;;;;;;26.80;99.90;;;;;;4981137;28;19912;-87
2022/05/15 10:24:00;;;;;;;;;;;26.90;99.90;;;;;;4979990;28;20358;-86
2022/05/15 10:26:32;;;;;;;;;;;26.80;99.90;;;;;;4977588;28;19910;-88
2022/05/15 10:29:16;;;;;;;;;;;27.00;99.90;;;;;;4977696;28;19956;-88
2022/05/15 10:31:46;;;;;;;;;;;27.50;99.90;;;;;;4975688;28;19953;-85
2022/05/15 10:34:15;;;;;;;;;;;27.80;99.90;;;;;;4975699;28;20004;-88
2022/05/15 10:36:51;;;;;;;;;;;27.50;99.90;;;;;;4957808;28;20381;-87
2022/05/15 10:39:34;;;;;;;;;;;27.10;99.90;;;;;;4975318;28;19957;-87
2022/05/15 10:42:19;;;;;;;;;;;26.80;99.90;;;;;;4973949;28;19914;-85
2022/05/15 10:45:04;;;;;;;;;;;26.40;99.90;;;;;;4975268;28;19910;-87
2022/05/15 10:47:50;;;;;;;;;;;26.30;99.90;;;;;;4976204;28;20000;-88
2022/05/15 10:50:34;;;;;;;;;;;26.20;99.90;;;;;;4977737;28;19910;-88
2022/05/15 10:57:21;;;;;;;;;;;26.30;99.90;;;;;;4975194;28;19918;-85
2022/05/15 10:58:39;;;;;;;;;;;26.50;99.90;;;;;;4980848;28;19914;-85
2022/05/15 11:01:10;;;;;;;;;;;26.30;99.90;;;;;;4976056;28;19910;-87
2022/05/15 11:03:46;;;;;;;;;;;26.10;99.90;;;;;;4977420;28;20358;-87
2022/05/15 11:06:30;;;;;;;;;;;26.10;99.90;;;;;;4983623;28;19906;-85
2022/05/15 11:09:01;;;;;;;;;;;26.10;99.90;;;;;;4982783;28;20190;-84
2022/05/15 11:11:33;;;;;;;;;;;26.00;99.90;;;;;;4974691;28;19993;-84
2022/05/15 11:14:02;;;;;;;;;;;25.80;99.90;;;;;;4977459;28;19914;-87
2022/05/15 11:16:38;;;;;;;;;;;25.60;99.90;;;;;;4978645;28;19989;-85
2022/05/15 11:19:11;;;;;;;;;;;25.60;99.90;;;;;;4977666;28;19965;-87
2022/05/15 11:21:49;;;;;;;;;;;25.70;99.90;;;;;;4976045;28;19917;-88
2022/05/15 11:24:33;;;;;;;;;;;26.10;99.90;;;;;;4978744;28;19918;-88
2022/05/15 11:27:00;;;;;;;;;;;26.80;99.90;;;;;;4979112;28;19911;-86
2022/05/15 11:29:26;;;;;;;;;;;27.00;99.90;;;;;;4978643;28;20416;-86
2022/05/15 11:31:53;;;;;;;;;;;27.20;99.90;;;;;;4978513;28;19914;-85
2022/05/15 11:34:19;;;;;;;;;;;27.30;99.90;;;;;;4978674;28;19914;-85
2022/05/15 11:36:46;;;;;;;;;;;27.40;99.90;;;;;;4978580;28;19993;-87
2022/05/15 11:39:15;;;;;;;;;;;27.40;99.90;;;;;;4978746;28;19914;-87
2022/05/15 11:41:43;;;;;;;;;;;27.70;99.90;;;;;;4977157;28;20250;-85
2022/05/15 11:44:18;;;;;;;;;;;28.10;99.90;;;;;;4978259;28;19910;-85
2022/05/15 11:46:50;;;;;;;;;;;28.30;99.90;;;;;;4978230;28;19966;-85
2022/05/15 11:49:33;;;;;;;;;;;28.40;99.90;;;;;;4978457;28;19910;-85
2022/05/15 11:52:05;;;;;;;;;;;28.50;99.90;;;;;;4978274;28;19932;-83
2022/05/15 11:54:36;;;;;;;;;;;28.60;99.80;;;;;;4978710;28;19984;-87
2022/05/15 11:57:03;;;;;;;;;;;28.50;99.90;;;;;;4981229;28;19910;-87
2022/05/15 11:59:30;;;;;;;;;;;28.50;99.90;;;;;;4978411;28;20345;-88
2022/05/15 12:01:57;;;;;;;;;;;28.30;99.70;;;;;;4977683;28;19914;-88
2022/05/15 12:04:34;;;;;;;;;;;28.30;99.80;;;;;;4978246;28;19939;-85
2022/05/15 12:07:00;;;;;;;;;;;28.40;99.70;;;;;;4980267;28;19917;-86
2022/05/15 12:09:41;;;;;;;;;;;28.30;99.50;;;;;;4978190;28;19910;-87
2022/05/15 12:12:27;;;;;;;;;;;27.90;99.90;;;;;;4982395;28;19949;-87
2022/05/15 12:15:05;;;;;;;;;;;28.00;99.00;;;;;;4980201;28;20345;-87
2022/05/15 12:17:35;;;;;;;;;;;28.00;98.40;;;;;;4978414;28;19914;-87
2022/05/15 12:20:03;;;;;;;;;;;27.60;98.00;;;;;;4977685;28;19910;-87
2022/05/15 12:22:35;;;;;;;;;;;27.40;98.00;;;;;;4977594;28;19925;-89
2022/05/15 12:25:08;;;;;;;;;;;27.10;97.30;;;;;;4977644;28;19945;-88
2022/05/15 12:27:36;;;;;;;;;;;27.00;97.40;;;;;;4978019;28;19909;-88
2022/05/15 12:30:09;;;;;;;;;;;26.70;97.20;;;;;;4988196;28;19906;-86
2022/05/15 12:32:52;;;;;;;;;;;26.50;97.70;;;;;;5003110;28;20079;-85
2022/05/15 12:35:31;;;;;;;;;;;26.40;98.20;;;;;;4986798;28;19906;-88
2022/05/15 12:38:04;;;;;;;;;;;26.60;97.90;;;;;;4988177;28;19910;-89
2022/05/15 12:40:31;;;;;;;;;;;27.30;97.40;;;;;;4988249;28;19906;-88
2022/05/15 12:42:58;;;;;;;;;;;27.40;96.80;;;;;;4987988;28;19906;-89
2022/05/15 12:45:23;;;;;;;;;;;27.30;96.70;;;;;;4970665;28;19977;-86
2022/05/15 12:48:07;;;;;;;;;;;27.50;97.00;;;;;;4987915;28;19906;-88
2022/05/15 12:50:32;;;;;;;;;;;27.60;96.70;;;;;;4987247;28;20140;-86
2022/05/15 12:53:02;;;;;;;;;;;27.40;96.60;;;;;;4986854;28;19917;-89
2022/05/15 12:55:31;;;;;;;;;;;27.10;97.10;;;;;;4987643;28;19946;-85
2022/05/15 12:57:58;;;;;;;;;;;27.00;97.40;;;;;;4986929;28;19906;-85
2022/05/15 13:00:34;;;;;;;;;;;26.80;97.10;;;;;;4987168;28;19937;-87
2022/05/15 13:03:01;;;;;;;;;;;26.90;96.70;;;;;;4986695;28;19911;-88
2022/05/15 13:05:31;;;;;;;;;;;27.10;96.40;;;;;;4982525;28;19972;-86
2022/05/15 13:08:04;;;;;;;;;;;27.10;96.70;;;;;;4980416;28;20001;-87
2022/05/15 13:10:31;;;;;;;;;;;27.30;96.90;;;;;;4983268;28;20159;-87
2022/05/15 13:13:11;;;;;;;;;;;27.40;96.10;;;;;;4978808;28;19918;-88
2022/05/15 13:15:37;;;;;;;;;;;27.20;96.20;;;;;;4976810;28;20444;-89
2022/05/15 13:18:04;;;;;;;;;;;27.10;96.30;;;;;;4975311;28;19914;-88
2022/05/15 13:20:30;;;;;;;;;;;26.90;96.60;;;;;;4976452;28;19916;-88
2022/05/15 13:22:59;;;;;;;;;;;27.00;96.40;;;;;;4976679;28;19925;-88
2022/05/15 13:25:25;;;;;;;;;;;26.80;96.60;;;;;;4959320;28;20004;-90
2022/05/15 13:27:51;;;;;;;;;;;26.60;97.00;;;;;;4976712;28;19961;-86
2022/05/15 13:30:20;;;;;;;;;;;26.80;97.10;;;;;;4976711;28;20340;-88
2022/05/15 13:32:47;;;;;;;;;;;27.00;97.10;;;;;;4976372;28;19921;-89
2022/05/15 13:35:14;;;;;;;;;;;27.00;97.30;;;;;;4958847;28;19914;-88
2022/05/15 13:37:41;;;;;;;;;;;26.90;97.50;;;;;;4958850;28;19965;-89
2022/05/15 13:45:46;;;;;;;;;;;27.10;97.70;;;;;;4975232;28;19992;-89
2022/05/15 13:48:12;;;;;;;;;;;27.40;97.50;;;;;;4976250;28;19910;-89
2022/05/15 13:50:37;;;;;;;;;;;27.70;97.40;;;;;;4976485;28;19910;-87
2022/05/15 13:53:21;;;;;;;;;;;27.80;97.30;;;;;;4975912;28;19914;-90
2022/05/15 13:55:51;;;;;;;;;;;28.60;96.50;;;;;;4975917;28;19917;-87
2022/05/15 13:58:17;;;;;;;;;;;30.60;95.10;;;;;;4958726;28;20029;-89
2022/05/15 14:00:59;;;;;;;;;;;32.50;93.30;;;;;;4977176;28;19911;-89
2022/05/15 14:03:32;;;;;;;;;;;32.90;92.40;;;;;;4975847;28;19993;-88
2022/05/15 14:06:19;;;;;;;;;;;33.70;91.70;;;;;;4958512;28;20404;-87
2022/05/15 14:09:14;;;;;;;;;;;33.90;90.40;;;;;;4975861;28;19910;-88
2022/05/15 14:11:59;;;;;;;;;;;34.80;89.60;;;;;;4963272;28;19910;-87
2022/05/15 14:14:43;;;;;;;;;;;34.30;87.70;;;;;;4975650;28;19922;-88
2022/05/15 14:17:09;;;;;;;;;;;34.90;87.00;;;;;;4974225;28;19911;-89
2022/05/15 14:19:46;;;;;;;;;;;36.20;86.10;;;;;;4990176;28;20366;-88
2022/05/15 14:22:11;;;;;;;;;;;37.00;84.40;;;;;;4976011;28;19916;-89
2022/05/15 14:24:38;;;;;;;;;;;36.40;82.60;;;;;;4975454;28;20381;-88
2022/05/15 14:27:03;;;;;;;;;;;35.40;82.60;;;;;;4975515;28;19913;-89
2022/05/15 14:29:29;;;;;;;;;;;34.50;83.50;;;;;;4975975;28;19937;-89
2022/05/15 14:32:00;;;;;;;;;;;33.80;85.00;;;;;;4975301;28;19933;-89
2022/05/15 14:34:26;;;;;;;;;;;34.50;84.60;;;;;;4975108;28;19918;-87
2022/05/15 14:36:52;;;;;;;;;;;34.50;83.50;;;;;;4975214;28;19917;-88
2022/05/15 14:39:17;;;;;;;;;;;34.80;84.10;;;;;;4975152;28;19961;-89
2022/05/15 14:41:43;;;;;;;;;;;35.70;83.40;;;;;;4975182;28;19910;-88
2022/05/15 14:44:08;;;;;;;;;;;35.70;81.90;;;;;;4975247;28;19910;-88
2022/05/15 14:46:34;;;;;;;;;;;35.60;82.10;;;;;;4957743;28;19918;-88
2022/05/15 14:49:00;;;;;;;;;;;36.30;81.10;;;;;;4975462;28;19910;-87
2022/05/15 14:51:27;;;;;;;;;;;36.50;79.50;;;;;;4975336;28;19910;-89
2022/05/15 14:53:54;;;;;;;;;;;36.00;79.60;;;;;;4974960;28;19922;-89